createdAt,value
2023-04-19T00:02:18.408Z,62.20
2023-04-19T00:05:05.106Z,56.40
2023-04-19T00:07:51.226Z,50.65
2023-04-19T00:10:36.539Z,56.40
2023-04-19T00:13:21.939Z,52.47
2023-04-19T00:16:07.620Z,58.28
2023-04-19T00:18:52.713Z,48.97
2023-04-19T00:21:37.796Z,51.70
2023-04-19T00:24:22.645Z,46.85
2023-04-19T00:27:07.586Z,55.40
2023-04-19T00:29:52.531Z,50.03
2023-04-19T00:32:37.506Z,56.35
2023-04-19T00:35:22.406Z,51.50
2023-04-19T00:38:08.008Z,51.42
2023-04-19T00:40:53.007Z,50.58
2023-04-19T00:43:38.034Z,52.45
2023-04-19T00:46:23.631Z,51.10
2023-04-19T00:49:09.756Z,52.03
2023-04-19T00:51:54.842Z,51.58
2023-04-19T00:54:42.249Z,54.70
2023-04-19T00:57:29.615Z,57.78
2023-04-19T01:00:15.268Z,59.47
2023-04-19T01:03:00.340Z,49.17
2023-04-19T01:05:45.754Z,49.90
2023-04-19T01:08:30.878Z,47.63
2023-04-19T01:11:20.644Z,52.38
2023-04-19T01:14:05.582Z,56.63
2023-04-19T01:16:51.037Z,58.95
2023-04-19T01:19:36.679Z,54.92
2023-04-19T01:22:25.198Z,50.30
2023-04-19T01:25:10.449Z,54.47
2023-04-19T01:27:55.436Z,53.65
2023-04-19T01:30:40.517Z,59.00
2023-04-19T01:33:25.648Z,53.33
2023-04-19T01:36:10.991Z,50.65
2023-04-19T01:38:57.769Z,46.78
2023-04-19T01:41:42.591Z,50.78
2023-04-19T01:44:27.455Z,50.25
2023-04-19T01:47:12.481Z,53.47
2023-04-19T01:49:57.466Z,54.40
2023-04-19T01:52:42.575Z,51.08
2023-04-19T01:55:28.838Z,48.55
2023-04-19T01:58:13.906Z,51.20
2023-04-19T02:00:58.896Z,54.60
2023-04-19T02:03:44.319Z,53.65
2023-04-19T02:06:29.629Z,51.33
2023-04-19T02:09:14.861Z,47.72
2023-04-19T02:11:59.852Z,52.17
2023-04-19T02:14:44.815Z,47.50
2023-04-19T02:17:30.452Z,43.42
2023-04-19T02:20:15.595Z,53.15
2023-04-19T02:23:00.976Z,57.58
2023-04-19T02:25:46.049Z,52.55
2023-04-19T02:28:31.706Z,59.28
2023-04-19T02:31:17.088Z,49.70
2023-04-19T02:34:02.373Z,53.40
2023-04-19T02:36:47.549Z,52.92
2023-04-19T02:39:34.256Z,50.20
2023-04-19T02:42:19.209Z,57.15
2023-04-19T02:45:04.402Z,53.40
2023-04-19T02:47:49.360Z,53.20
2023-04-19T02:50:38.457Z,53.35
2023-04-19T02:53:23.536Z,48.08
2023-04-19T02:56:09.234Z,49.40
2023-04-19T02:58:54.977Z,48.97
2023-04-19T03:01:40.367Z,54.58
2023-04-19T03:04:25.499Z,48.97
2023-04-19T03:07:10.486Z,49.83
2023-04-19T03:09:55.879Z,54.28
2023-04-19T03:12:41.128Z,52.95
2023-04-19T03:15:26.342Z,61.28
2023-04-19T03:18:11.670Z,60.17
2023-04-19T03:20:56.629Z,50.05
2023-04-19T03:23:41.673Z,52.60
2023-04-19T03:26:26.691Z,54.28
2023-04-19T03:29:14.197Z,54.28
2023-04-19T03:31:59.385Z,55.58
2023-04-19T03:34:44.269Z,54.50
2023-04-19T03:37:29.352Z,58.67
2023-04-19T03:40:14.554Z,58.13
2023-04-19T03:42:59.798Z,56.70
2023-04-19T03:45:44.961Z,57.90
2023-04-19T03:48:29.889Z,58.97
2023-04-19T03:51:16.029Z,58.33
2023-04-19T03:54:00.919Z,60.08
2023-04-19T03:56:45.992Z,66.50
2023-04-19T03:59:31.252Z,66.20
2023-04-19T04:02:16.595Z,56.40
2023-04-19T04:05:01.906Z,61.70
2023-04-19T04:07:47.126Z,54.30
2023-04-19T04:10:32.275Z,64.97
2023-04-19T04:13:17.214Z,56.53
2023-04-19T04:16:02.977Z,63.65
2023-04-19T04:18:47.924Z,58.90
2023-04-19T04:21:33.473Z,60.03
2023-04-19T04:24:20.150Z,58.00
2023-04-19T04:27:05.764Z,68.57
2023-04-19T04:29:51.534Z,56.25
2023-04-19T04:32:38.327Z,58.15
2023-04-19T04:35:23.736Z,55.65
2023-04-19T04:38:21.407Z,62.05
2023-04-19T04:44:10.809Z,57.50
2023-04-19T04:46:57.560Z,66.40
2023-04-19T04:49:42.502Z,63.95
2023-04-19T04:52:27.695Z,63.30
2023-04-19T04:55:12.865Z,61.75
2023-04-19T04:57:57.797Z,69.47
2023-04-19T05:00:42.692Z,67.55
2023-04-19T05:03:27.745Z,67.47
2023-04-19T05:06:13.347Z,66.88
2023-04-19T05:08:58.216Z,65.05
2023-04-19T05:11:43.189Z,62.53
2023-04-19T05:14:28.088Z,70.28
2023-04-19T05:17:13.123Z,65.22
2023-04-19T05:19:58.064Z,60.63
2023-04-19T05:22:43.049Z,58.90
2023-04-19T05:25:27.929Z,53.33
2023-04-19T05:28:13.240Z,58.90
2023-04-19T05:30:58.412Z,59.80
2023-04-19T05:33:43.571Z,58.58
2023-04-19T05:36:28.726Z,57.10
2023-04-19T05:39:13.940Z,62.13
2023-04-19T05:41:59.341Z,56.40
2023-04-19T05:44:44.533Z,54.03
2023-04-19T05:47:29.527Z,57.70
2023-04-19T05:50:17.855Z,52.42
2023-04-19T05:53:03.577Z,52.72
2023-04-19T05:55:50.758Z,53.38
2023-04-19T05:58:36.661Z,50.05
2023-04-19T06:01:22.195Z,45.47
2023-04-19T06:04:07.574Z,56.10
2023-04-19T06:06:52.782Z,55.15
2023-04-19T06:09:37.649Z,52.05
2023-04-19T06:12:22.868Z,49.55
2023-04-19T06:15:08.592Z,48.17
2023-04-19T06:17:53.651Z,44.92
2023-04-19T06:20:39.173Z,47.53
2023-04-19T06:23:25.467Z,50.00
2023-04-19T06:26:10.614Z,49.20
2023-04-19T06:28:55.860Z,48.00
2023-04-19T06:31:41.146Z,42.42
2023-04-19T06:34:26.458Z,37.88
2023-04-19T06:37:11.738Z,49.55
2023-04-19T06:39:56.755Z,45.05
2023-04-19T06:42:41.868Z,45.25
2023-04-19T06:45:27.147Z,40.65
2023-04-19T06:48:12.529Z,39.78
2023-04-19T06:50:57.936Z,37.67
2023-04-19T06:53:44.610Z,40.72
2023-04-19T06:56:59.467Z,38.97
2023-04-19T06:59:45.046Z,39.33
2023-04-19T07:02:30.312Z,38.80
2023-04-19T07:05:15.984Z,42.47
2023-04-19T07:08:01.329Z,35.60
2023-04-19T07:10:46.593Z,38.10
2023-04-19T07:13:31.622Z,33.78
2023-04-19T07:16:17.102Z,38.08
2023-04-19T07:19:02.362Z,41.33
2023-04-19T07:21:47.344Z,35.78
2023-04-19T07:24:32.372Z,37.50
2023-04-19T07:27:18.552Z,31.90
2023-04-19T07:30:04.104Z,35.47
2023-04-19T07:32:51.844Z,31.02
2023-04-19T07:35:39.707Z,33.17
2023-04-19T07:38:24.855Z,36.15
2023-04-19T07:41:10.246Z,33.35
2023-04-19T07:43:55.653Z,37.30
2023-04-19T07:46:45.233Z,35.35
2023-04-19T07:49:33.905Z,36.72
2023-04-19T07:52:18.750Z,33.45
2023-04-19T07:55:04.145Z,35.53
2023-04-19T07:57:49.837Z,32.75
2023-04-19T08:00:36.694Z,34.65
2023-04-19T08:03:22.226Z,38.45
2023-04-19T08:06:09.015Z,39.47
2023-04-19T08:08:54.079Z,34.53
2023-04-19T08:11:39.232Z,35.65
2023-04-19T08:14:37.785Z,35.38
2023-04-19T08:17:32.597Z,31.02
2023-04-19T08:20:22.289Z,36.42
2023-04-19T08:23:20.717Z,37.53
2023-04-19T08:26:09.731Z,35.25
2023-04-19T08:28:55.044Z,30.38
2023-04-19T08:31:44.005Z,33.78
2023-04-19T08:34:29.086Z,29.15
2023-04-19T08:37:14.376Z,29.55
2023-04-19T08:39:59.408Z,28.67
2023-04-19T08:42:44.337Z,27.77
2023-04-19T08:45:30.527Z,28.15
2023-04-19T08:48:16.822Z,36.78
2023-04-19T08:51:05.439Z,34.08
2023-04-19T08:53:52.409Z,32.60
2023-04-19T08:56:37.404Z,27.85
2023-04-19T08:59:22.957Z,27.15
2023-04-19T09:02:08.389Z,24.83
2023-04-19T09:04:54.070Z,23.70
2023-04-19T09:07:39.425Z,26.48
2023-04-19T09:10:25.964Z,26.77
2023-04-19T09:13:13.338Z,27.08
2023-04-19T09:16:01.685Z,28.50
2023-04-19T09:19:08.163Z,25.90
2023-04-19T09:22:13.404Z,27.83
2023-04-19T09:27:48.491Z,27.92
2023-04-19T09:30:38.070Z,25.85
2023-04-19T09:33:36.735Z,29.35
2023-04-19T09:36:33.435Z,27.75
2023-04-19T09:39:38.937Z,28.88
2023-04-19T09:42:47.327Z,25.70
2023-04-19T09:45:40.435Z,25.05
2023-04-19T09:48:25.436Z,27.23
2023-04-19T09:51:13.638Z,25.45
2023-04-19T09:53:59.984Z,24.08
2023-04-19T09:56:45.675Z,26.10
2023-04-19T09:59:30.754Z,28.50
2023-04-19T10:02:16.588Z,23.77
2023-04-19T10:05:19.963Z,27.35
2023-04-19T10:08:13.761Z,22.70
2023-04-19T10:10:59.345Z,25.23
2023-04-19T10:13:47.251Z,23.38
2023-04-19T10:16:32.904Z,23.73
2023-04-19T10:19:20.655Z,27.88
2023-04-19T10:22:07.772Z,21.58
2023-04-19T10:25:13.514Z,22.30
2023-04-19T10:27:58.732Z,25.00
2023-04-19T10:31:13.707Z,23.60
2023-04-19T10:33:58.821Z,28.38
2023-04-19T10:36:44.423Z,26.55
2023-04-19T10:39:43.995Z,25.58
2023-04-19T10:43:07.824Z,23.88
2023-04-19T10:45:53.441Z,24.58
2023-04-19T10:48:53.616Z,21.05
2023-04-19T10:51:42.360Z,30.55
2023-04-19T10:54:28.540Z,26.67
2023-04-19T10:57:13.545Z,21.00
2023-04-19T11:00:18.422Z,22.95
2023-04-19T11:04:01.277Z,20.48
2023-04-19T11:06:56.292Z,19.70
2023-04-19T11:09:45.974Z,20.15
2023-04-19T11:12:30.966Z,18.13
2023-04-19T11:15:16.208Z,19.13
2023-04-19T11:18:12.111Z,16.70
2023-04-19T11:20:57.986Z,17.90
2023-04-19T11:23:42.984Z,16.30
2023-04-19T11:26:28.223Z,17.35
2023-04-19T11:29:13.684Z,20.00
2023-04-19T11:32:00.218Z,17.83
2023-04-19T11:34:45.475Z,14.98
2023-04-19T11:37:35.817Z,15.25
2023-04-19T11:40:23.269Z,15.85
2023-04-19T11:43:08.306Z,15.70
2023-04-19T11:45:54.206Z,18.38
2023-04-19T11:48:50.414Z,19.30
2023-04-19T11:51:35.400Z,15.27
2023-04-19T11:54:23.715Z,14.80
2023-04-19T11:57:09.032Z,15.30
2023-04-19T12:00:12.383Z,13.35
2023-04-19T12:02:59.649Z,16.90
2023-04-19T12:05:54.613Z,12.45
2023-04-19T12:08:44.435Z,15.32
2023-04-19T12:14:29.202Z,13.50
2023-04-19T12:17:15.741Z,17.92
2023-04-19T12:20:00.726Z,20.15
2023-04-19T12:22:46.059Z,14.02
2023-04-19T12:25:33.212Z,14.55
2023-04-19T12:28:18.146Z,12.38
2023-04-19T12:31:03.409Z,11.43
2023-04-19T12:33:49.106Z,15.23
2023-04-19T12:36:35.124Z,17.77
2023-04-19T12:39:20.306Z,15.85
2023-04-19T12:42:06.151Z,17.63
2023-04-19T12:44:51.384Z,15.45
2023-04-19T12:47:36.288Z,12.13
2023-04-19T12:50:30.496Z,14.00
2023-04-19T12:53:15.852Z,14.18
2023-04-19T12:56:01.077Z,13.30
2023-04-19T12:58:46.431Z,16.65
2023-04-19T13:01:32.460Z,12.52
2023-04-19T13:04:18.456Z,17.33
2023-04-19T13:07:03.952Z,17.35
2023-04-19T13:09:49.205Z,17.13
2023-04-19T13:12:34.244Z,11.50
2023-04-19T13:15:19.646Z,15.73
2023-04-19T13:18:04.800Z,13.23
2023-04-19T13:20:51.360Z,16.35
2023-04-19T13:23:36.470Z,21.40
2023-04-19T13:26:22.028Z,16.52
2023-04-19T13:29:10.335Z,13.27
2023-04-19T13:31:55.666Z,16.30
2023-04-19T13:34:40.993Z,13.55
2023-04-19T13:37:26.270Z,10.57
2023-04-19T13:40:18.924Z,16.65
2023-04-19T13:43:05.006Z,16.42
2023-04-19T13:45:50.354Z,16.38
2023-04-19T13:48:35.370Z,14.25
2023-04-19T13:51:29.428Z,13.48
2023-04-19T13:54:21.280Z,13.88
2023-04-19T13:57:06.603Z,13.05
2023-04-19T13:59:51.630Z,14.25
2023-04-19T14:02:36.867Z,15.60
2023-04-19T14:05:22.109Z,18.25
2023-04-19T14:08:07.338Z,18.92
2023-04-19T14:10:52.306Z,17.48
2023-04-19T14:13:37.511Z,19.13
2023-04-19T14:16:25.200Z,15.82
2023-04-19T14:19:10.762Z,17.98
2023-04-19T14:21:56.456Z,19.15
2023-04-19T14:24:41.544Z,20.80
2023-04-19T14:27:26.893Z,24.10
2023-04-19T14:30:12.061Z,20.02
2023-04-19T14:32:57.461Z,18.10
2023-04-19T14:35:43.091Z,20.00
2023-04-19T14:38:28.194Z,20.15
2023-04-19T14:41:13.378Z,19.20
2023-04-19T14:43:58.687Z,15.45
2023-04-19T14:46:43.693Z,23.52
2023-04-19T14:49:28.808Z,21.15
2023-04-19T14:52:14.138Z,16.83
2023-04-19T14:55:00.004Z,15.23
2023-04-19T14:57:45.026Z,17.50
2023-04-19T15:00:30.133Z,20.88
2023-04-19T15:03:17.440Z,18.58
2023-04-19T15:06:03.710Z,16.23
2023-04-19T15:08:49.120Z,21.90
2023-04-19T15:11:34.080Z,16.55
2023-04-19T15:14:19.853Z,15.40
2023-04-19T15:17:05.808Z,19.58
2023-04-19T15:19:50.924Z,22.15
2023-04-19T15:22:36.333Z,14.27
2023-04-19T15:25:21.630Z,14.13
2023-04-19T15:28:06.775Z,14.40
2023-04-19T15:31:04.004Z,17.27
2023-04-19T15:33:48.976Z,18.70
2023-04-19T15:36:33.970Z,13.52
2023-04-19T15:39:19.034Z,14.70
2023-04-19T15:42:05.550Z,20.17
2023-04-19T15:44:50.557Z,16.42
2023-04-19T15:47:35.880Z,13.73
2023-04-19T15:50:20.880Z,10.80
2023-04-19T15:53:07.133Z,11.57
2023-04-19T15:55:53.358Z,13.98
2023-04-19T15:58:39.870Z,18.13
2023-04-19T16:01:25.309Z,14.57
2023-04-19T16:04:10.582Z,18.27
2023-04-19T16:06:55.943Z,14.98
2023-04-19T16:09:41.186Z,16.98
2023-04-19T16:12:27.338Z,15.65
2023-04-19T16:15:13.358Z,20.63
2023-04-19T16:17:58.541Z,11.00
2023-04-19T16:20:43.485Z,17.85
2023-04-19T16:23:28.368Z,18.33
2023-04-19T16:26:13.224Z,15.80
2023-04-19T16:28:59.370Z,21.42
2023-04-19T16:31:44.456Z,18.83
2023-04-19T16:34:29.460Z,17.45
2023-04-19T16:37:16.127Z,16.85
2023-04-19T16:40:09.801Z,11.35
2023-04-19T16:42:54.949Z,12.70
2023-04-19T16:45:42.637Z,16.83
2023-04-19T16:48:27.950Z,16.83
2023-04-19T16:51:13.177Z,19.70
2023-04-19T16:53:58.121Z,11.07
2023-04-19T16:56:43.309Z,14.63
2023-04-19T16:59:28.422Z,13.52
2023-04-19T17:02:13.494Z,20.13
2023-04-19T17:04:59.205Z,13.73
2023-04-19T17:07:44.595Z,11.30
2023-04-19T17:10:29.925Z,13.45
2023-04-19T17:13:15.107Z,14.45
2023-04-19T17:16:00.499Z,13.38
2023-04-19T17:18:45.930Z,14.73
2023-04-19T17:21:31.417Z,15.63
2023-04-19T17:24:16.669Z,15.13
2023-04-19T17:27:02.206Z,14.60
2023-04-19T17:29:47.508Z,15.35
2023-04-19T17:32:33.145Z,12.03
2023-04-19T17:35:18.377Z,32.25
2023-04-19T17:38:03.858Z,12.18
2023-04-19T17:40:48.839Z,18.88
2023-04-19T17:43:34.456Z,20.35
2023-04-19T17:46:20.839Z,16.63
2023-04-19T17:49:06.033Z,13.43
2023-04-19T17:51:51.100Z,10.25
2023-04-19T17:54:36.234Z,14.80
2023-04-19T17:57:21.437Z,11.57
2023-04-19T18:00:07.964Z,14.48
2023-04-19T18:02:53.185Z,15.70
2023-04-19T18:05:39.564Z,22.42
2023-04-19T18:08:24.747Z,17.85
2023-04-19T18:11:13.136Z,16.65
2023-04-19T18:13:58.559Z,20.45
2023-04-19T18:16:43.792Z,11.18
2023-04-19T18:19:29.152Z,15.15
2023-04-19T18:22:14.087Z,16.80
2023-04-19T18:24:59.161Z,19.10
2023-04-19T18:27:44.641Z,18.95
2023-04-19T18:30:29.762Z,17.15
2023-04-19T18:33:15.202Z,16.50
2023-04-19T18:36:00.337Z,22.38
2023-04-19T18:38:45.480Z,16.00
2023-04-19T18:41:30.728Z,27.23
2023-04-19T18:44:39.053Z,22.17
2023-04-19T18:47:21.177Z,18.55
2023-04-19T18:50:08.395Z,22.38
2023-04-19T18:52:53.429Z,27.90
2023-04-19T18:55:38.894Z,21.55
2023-04-19T18:58:25.878Z,22.77
2023-04-19T19:01:12.012Z,23.35
2023-04-19T19:04:19.125Z,22.33
2023-04-19T19:07:14.248Z,24.20
2023-04-19T19:15:42.297Z,21.73
2023-04-19T19:18:29.410Z,20.58
2023-04-19T19:21:15.034Z,27.27
2023-04-19T19:24:00.630Z,24.48
2023-04-19T19:26:45.905Z,27.70
2023-04-19T19:29:36.294Z,21.45
2023-04-19T19:32:22.118Z,25.15
2023-04-19T19:35:09.327Z,20.58
2023-04-19T19:37:54.580Z,22.65
2023-04-19T19:40:59.313Z,27.90
2023-04-19T19:43:45.345Z,22.23
2023-04-19T19:46:31.071Z,15.73
2023-04-19T19:49:16.400Z,16.83
2023-04-19T19:52:02.498Z,18.77
2023-04-19T19:54:48.354Z,17.15
2023-04-19T20:03:09.398Z,14.27
2023-04-19T20:05:56.982Z,20.02
2023-04-19T20:08:44.517Z,19.85
2023-04-19T20:11:30.130Z,20.15
2023-04-19T20:14:15.360Z,18.83
2023-04-19T20:17:01.054Z,22.75
2023-04-19T20:19:46.352Z,20.08
2023-04-19T20:22:31.417Z,14.57
2023-04-19T20:25:16.632Z,13.73
2023-04-19T20:28:01.965Z,21.25
2023-04-19T20:30:47.243Z,24.55
2023-04-19T20:33:32.248Z,19.02
2023-04-19T20:36:17.788Z,14.02
2023-04-19T20:39:09.156Z,20.13
2023-04-19T20:41:54.127Z,16.85
2023-04-19T20:44:38.943Z,17.15
2023-04-19T20:47:25.606Z,18.85
2023-04-19T20:50:11.306Z,16.10
2023-04-19T20:52:56.656Z,32.33
2023-04-19T20:55:43.471Z,22.48
2023-04-19T20:58:28.375Z,14.88
2023-04-19T21:01:17.095Z,19.95
2023-04-19T21:04:02.370Z,15.15
2023-04-19T21:06:47.582Z,18.42
2023-04-19T21:09:33.034Z,22.88
2023-04-19T21:12:18.242Z,19.63
2023-04-19T21:15:04.942Z,18.15
2023-04-19T21:17:50.100Z,18.02
2023-04-19T21:20:35.520Z,20.42
2023-04-19T21:23:20.914Z,20.75
2023-04-19T21:26:06.158Z,18.10
2023-04-19T21:28:51.770Z,20.55
2023-04-19T21:31:37.031Z,19.98
2023-04-19T21:34:22.963Z,22.20
2023-04-19T21:37:08.273Z,18.75
2023-04-19T21:39:54.433Z,21.33
2023-04-19T21:42:39.561Z,16.63
2023-04-19T21:45:24.749Z,16.25
2023-04-19T21:48:10.059Z,20.50
2023-04-19T21:50:55.353Z,19.05
2023-04-19T21:53:40.498Z,21.77
2023-04-19T21:56:25.886Z,12.80
2023-04-19T21:59:11.094Z,20.98
2023-04-19T22:01:56.203Z,19.80
2023-04-19T22:04:41.612Z,17.08
2023-04-19T22:07:30.231Z,21.67
2023-04-19T22:10:16.484Z,18.35
2023-04-19T22:13:03.469Z,18.13
2023-04-19T22:15:48.471Z,20.27
2023-04-19T22:18:35.683Z,16.25
2023-04-19T22:21:21.043Z,14.80
2023-04-19T22:24:06.669Z,18.45
2023-04-19T22:26:58.031Z,14.40
2023-04-19T22:29:43.028Z,19.92
2023-04-19T22:32:27.927Z,18.35
2023-04-19T22:35:12.814Z,20.13
2023-04-19T22:37:57.776Z,17.98
2023-04-19T22:40:42.768Z,29.08
2023-04-19T22:43:28.033Z,16.10
2023-04-19T22:46:13.238Z,14.40
2023-04-19T22:48:58.561Z,19.17
2023-04-19T22:51:45.137Z,20.65
2023-04-19T22:54:30.878Z,16.23
2023-04-19T22:57:16.489Z,22.27
2023-04-19T23:00:01.741Z,24.25
2023-04-19T23:02:47.154Z,25.70
2023-04-19T23:05:33.514Z,25.30
2023-04-19T23:08:19.908Z,15.82
2023-04-19T23:11:06.187Z,24.88
2023-04-19T23:13:54.864Z,14.82
2023-04-19T23:16:40.378Z,20.48
2023-04-19T23:19:26.349Z,21.90
2023-04-19T23:22:11.200Z,19.40
2023-04-19T23:24:56.141Z,20.38
2023-04-19T23:27:41.185Z,16.60
2023-04-19T23:30:26.509Z,16.65
2023-04-19T23:33:11.522Z,20.08
2023-04-19T23:35:56.483Z,17.02
2023-04-19T23:38:41.711Z,20.90
2023-04-19T23:41:27.019Z,18.10
2023-04-19T23:44:12.328Z,24.10
2023-04-19T23:46:57.301Z,15.40
2023-04-19T23:49:42.278Z,14.05
2023-04-19T23:52:27.553Z,18.08
2023-04-19T23:55:13.047Z,15.98
2023-04-19T23:57:58.634Z,13.18
